sensor_id;sensor_type;location;lat;lon;timestamp;P1;durP1;ratioP1;P2;durP2;ratioP2
10333;SDS011;5212;47.892;16.406;2023-07-13T00:01:16;2.13;;;1.93;;
10333;SDS011;5212;47.892;16.406;2023-07-13T00:03:42;2.00;;;1.80;;
10333;SDS011;5212;47.892;16.406;2023-07-13T00:06:09;2.20;;;2.00;;
10333;SDS011;5212;47.892;16.406;2023-07-13T00:08:36;7.63;;;2.30;;
10333;SDS011;5212;47.892;16.406;2023-07-13T00:11:02;1.93;;;1.80;;
10333;SDS011;5212;47.892;16.406;2023-07-13T00:13:28;2.37;;;2.17;;
10333;SDS011;5212;47.892;16.406;2023-07-13T00:15:57;2.10;;;1.90;;
10333;SDS011;5212;47.892;16.406;2023-07-13T00:18:23;2.50;;;2.30;;
10333;SDS011;5212;47.892;16.406;2023-07-13T00:20:49;2.73;;;2.30;;
10333;SDS011;5212;47.892;16.406;2023-07-13T00:23:16;2.27;;;2.07;;
10333;SDS011;5212;47.892;16.406;2023-07-13T00:25:42;3.00;;;2.00;;
10333;SDS011;5212;47.892;16.406;2023-07-13T00:28:08;2.40;;;1.93;;
10333;SDS011;5212;47.892;16.406;2023-07-13T00:30:34;2.20;;;2.00;;
10333;SDS011;5212;47.892;16.406;2023-07-13T00:33:00;2.37;;;2.17;;
10333;SDS011;5212;47.892;16.406;2023-07-13T00:35:26;2.40;;;2.20;;
10333;SDS011;5212;47.892;16.406;2023-07-13T00:37:55;2.70;;;2.10;;
10333;SDS011;5212;47.892;16.406;2023-07-13T00:40:22;2.23;;;1.80;;
10333;SDS011;5212;47.892;16.406;2023-07-13T00:42:48;2.30;;;1.97;;
10333;SDS011;5212;47.892;16.406;2023-07-13T00:48:19;2.00;;;1.80;;
10333;SDS011;5212;47.892;16.406;2023-07-13T00:50:47;2.03;;;1.83;;
10333;SDS011;5212;47.892;16.406;2023-07-13T00:53:15;2.13;;;1.93;;
10333;SDS011;5212;47.892;16.406;2023-07-13T00:55:42;1.80;;;1.70;;
10333;SDS011;5212;47.892;16.406;2023-07-13T00:58:08;1.80;;;1.60;;
10333;SDS011;5212;47.892;16.406;2023-07-13T01:00:35;1.93;;;1.63;;
10333;SDS011;5212;47.892;16.406;2023-07-13T01:03:02;2.30;;;1.80;;
10333;SDS011;5212;47.892;16.406;2023-07-13T01:05:29;2.07;;;1.80;;
10333;SDS011;5212;47.892;16.406;2023-07-13T01:07:57;1.70;;;1.60;;
10333;SDS011;5212;47.892;16.406;2023-07-13T01:10:35;2.37;;;1.60;;
10333;SDS011;5212;47.892;16.406;2023-07-13T01:13:04;2.13;;;1.73;;
10333;SDS011;5212;47.892;16.406;2023-07-13T01:15:34;1.90;;;1.70;;
10333;SDS011;5212;47.892;16.406;2023-07-13T01:18:03;1.97;;;1.77;;
10333;SDS011;5212;47.892;16.406;2023-07-13T01:20:29;2.40;;;1.70;;
10333;SDS011;5212;47.892;16.406;2023-07-13T01:22:56;1.97;;;1.70;;
10333;SDS011;5212;47.892;16.406;2023-07-13T01:25:22;3.03;;;2.07;;
10333;SDS011;5212;47.892;16.406;2023-07-13T01:27:48;2.47;;;2.10;;
10333;SDS011;5212;47.892;16.406;2023-07-13T01:30:14;3.37;;;1.90;;
10333;SDS011;5212;47.892;16.406;2023-07-13T01:32:40;1.50;;;1.40;;
10333;SDS011;5212;47.892;16.406;2023-07-13T01:35:07;2.13;;;1.80;;
10333;SDS011;5212;47.892;16.406;2023-07-13T01:37:33;3.27;;;1.80;;
10333;SDS011;5212;47.892;16.406;2023-07-13T01:40:01;1.70;;;1.60;;
10333;SDS011;5212;47.892;16.406;2023-07-13T01:42:28;1.70;;;1.60;;
10333;SDS011;5212;47.892;16.406;2023-07-13T01:44:54;1.77;;;1.60;;
10333;SDS011;5212;47.892;16.406;2023-07-13T01:47:22;1.70;;;1.60;;
10333;SDS011;5212;47.892;16.406;2023-07-13T01:49:48;2.03;;;1.70;;
10333;SDS011;5212;47.892;16.406;2023-07-13T01:52:15;1.57;;;1.47;;
10333;SDS011;5212;47.892;16.406;2023-07-13T01:54:41;1.60;;;1.50;;
10333;SDS011;5212;47.892;16.406;2023-07-13T01:57:07;1.90;;;1.70;;
10333;SDS011;5212;47.892;16.406;2023-07-13T01:59:33;3.73;;;1.43;;
10333;SDS011;5212;47.892;16.406;2023-07-13T02:02:00;1.90;;;1.80;;
10333;SDS011;5212;47.892;16.406;2023-07-13T02:04:25;3.10;;;1.60;;
10333;SDS011;5212;47.892;16.406;2023-07-13T02:06:52;2.30;;;1.70;;
10333;SDS011;5212;47.892;16.406;2023-07-13T02:09:18;1.60;;;1.47;;
10333;SDS011;5212;47.892;16.406;2023-07-13T02:11:44;2.63;;;1.70;;
10333;SDS011;5212;47.892;16.406;2023-07-13T02:14:10;3.13;;;1.80;;
10333;SDS011;5212;47.892;16.406;2023-07-13T02:16:36;2.17;;;1.80;;
10333;SDS011;5212;47.892;16.406;2023-07-13T02:19:02;1.87;;;1.70;;
10333;SDS011;5212;47.892;16.406;2023-07-13T02:21:28;4.13;;;1.67;;
10333;SDS011;5212;47.892;16.406;2023-07-13T02:23:54;1.80;;;1.70;;
10333;SDS011;5212;47.892;16.406;2023-07-13T02:26:22;1.73;;;1.63;;
10333;SDS011;5212;47.892;16.406;2023-07-13T02:28:49;2.47;;;1.60;;
10333;SDS011;5212;47.892;16.406;2023-07-13T02:31:16;2.43;;;1.80;;
10333;SDS011;5212;47.892;16.406;2023-07-13T02:33:42;2.00;;;1.80;;
10333;SDS011;5212;47.892;16.406;2023-07-13T02:36:09;2.00;;;1.80;;
10333;SDS011;5212;47.892;16.406;2023-07-13T02:38:35;3.43;;;1.70;;
10333;SDS011;5212;47.892;16.406;2023-07-13T02:41:01;1.70;;;1.60;;
10333;SDS011;5212;47.892;16.406;2023-07-13T02:43:27;2.47;;;1.67;;
10333;SDS011;5212;47.892;16.406;2023-07-13T02:45:54;2.03;;;1.80;;
10333;SDS011;5212;47.892;16.406;2023-07-13T02:48:21;3.40;;;2.07;;
10333;SDS011;5212;47.892;16.406;2023-07-13T02:50:47;3.40;;;2.00;;
10333;SDS011;5212;47.892;16.406;2023-07-13T02:53:13;4.00;;;2.33;;
10333;SDS011;5212;47.892;16.406;2023-07-13T02:55:39;3.60;;;2.00;;
10333;SDS011;5212;47.892;16.406;2023-07-13T02:58:05;2.10;;;1.90;;
10333;SDS011;5212;47.892;16.406;2023-07-13T03:00:32;2.67;;;1.90;;
10333;SDS011;5212;47.892;16.406;2023-07-13T03:02:58;4.80;;;2.00;;
10333;SDS011;5212;47.892;16.406;2023-07-13T03:05:24;2.10;;;1.70;;
10333;SDS011;5212;47.892;16.406;2023-07-13T03:07:50;4.30;;;2.07;;
10333;SDS011;5212;47.892;16.406;2023-07-13T03:10:16;3.60;;;2.00;;
10333;SDS011;5212;47.892;16.406;2023-07-13T03:12:43;3.07;;;2.10;;
10333;SDS011;5212;47.892;16.406;2023-07-13T03:15:09;4.27;;;2.20;;
10333;SDS011;5212;47.892;16.406;2023-07-13T03:17:35;5.37;;;2.40;;
10333;SDS011;5212;47.892;16.406;2023-07-13T03:20:01;3.50;;;2.17;;
10333;SDS011;5212;47.892;16.406;2023-07-13T03:22:29;2.97;;;2.10;;
10333;SDS011;5212;47.892;16.406;2023-07-13T03:24:55;4.03;;;2.17;;
10333;SDS011;5212;47.892;16.406;2023-07-13T03:27:21;3.27;;;1.93;;
10333;SDS011;5212;47.892;16.406;2023-07-13T03:29:47;3.37;;;1.97;;
10333;SDS011;5212;47.892;16.406;2023-07-13T03:32:13;2.20;;;1.80;;
10333;SDS011;5212;47.892;16.406;2023-07-13T03:34:39;3.70;;;2.00;;
10333;SDS011;5212;47.892;16.406;2023-07-13T03:37:05;4.53;;;2.30;;
10333;SDS011;5212;47.892;16.406;2023-07-13T03:39:32;3.83;;;2.17;;
10333;SDS011;5212;47.892;16.406;2023-07-13T03:41:58;3.93;;;2.20;;
10333;SDS011;5212;47.892;16.406;2023-07-13T03:44:24;3.20;;;1.90;;
10333;SDS011;5212;47.892;16.406;2023-07-13T03:46:50;5.77;;;1.93;;
10333;SDS011;5212;47.892;16.406;2023-07-13T03:49:16;4.13;;;2.13;;
10333;SDS011;5212;47.892;16.406;2023-07-13T03:51:42;3.13;;;2.00;;
10333;SDS011;5212;47.892;16.406;2023-07-13T03:54:08;4.40;;;2.20;;
10333;SDS011;5212;47.892;16.406;2023-07-13T03:56:34;2.50;;;2.00;;
10333;SDS011;5212;47.892;16.406;2023-07-13T03:59:00;4.57;;;2.40;;
10333;SDS011;5212;47.892;16.406;2023-07-13T04:01:27;2.87;;;2.10;;
10333;SDS011;5212;47.892;16.406;2023-07-13T04:03:53;3.77;;;2.20;;
10333;SDS011;5212;47.892;16.406;2023-07-13T04:06:20;2.93;;;1.80;;
10333;SDS011;5212;47.892;16.406;2023-07-13T04:08:47;4.00;;;2.00;;
10333;SDS011;5212;47.892;16.406;2023-07-13T04:11:15;3.93;;;2.40;;
10333;SDS011;5212;47.892;16.406;2023-07-13T04:13:42;3.03;;;2.00;;
10333;SDS011;5212;47.892;16.406;2023-07-13T04:16:09;3.57;;;1.97;;
10333;SDS011;5212;47.892;16.406;2023-07-13T04:18:35;3.77;;;2.10;;
10333;SDS011;5212;47.892;16.406;2023-07-13T04:21:01;3.53;;;2.40;;
10333;SDS011;5212;47.892;16.406;2023-07-13T04:23:27;3.00;;;1.67;;
10333;SDS011;5212;47.892;16.406;2023-07-13T04:25:53;2.83;;;2.00;;
10333;SDS011;5212;47.892;16.406;2023-07-13T04:28:19;2.63;;;1.97;;
10333;SDS011;5212;47.892;16.406;2023-07-13T04:30:48;2.60;;;1.83;;
10333;SDS011;5212;47.892;16.406;2023-07-13T04:33:15;3.97;;;2.27;;
10333;SDS011;5212;47.892;16.406;2023-07-13T04:35:42;3.13;;;2.00;;
10333;SDS011;5212;47.892;16.406;2023-07-13T04:38:08;5.43;;;2.93;;
10333;SDS011;5212;47.892;16.406;2023-07-13T04:40:36;4.13;;;2.60;;
10333;SDS011;5212;47.892;16.406;2023-07-13T04:43:02;3.67;;;2.50;;
10333;SDS011;5212;47.892;16.406;2023-07-13T04:45:28;3.47;;;2.10;;
10333;SDS011;5212;47.892;16.406;2023-07-13T04:47:56;3.07;;;2.00;;
10333;SDS011;5212;47.892;16.406;2023-07-13T04:50:22;5.03;;;2.33;;
10333;SDS011;5212;47.892;16.406;2023-07-13T04:52:49;3.73;;;2.10;;
10333;SDS011;5212;47.892;16.406;2023-07-13T04:55:15;2.77;;;1.83;;
10333;SDS011;5212;47.892;16.406;2023-07-13T04:57:42;5.40;;;2.60;;
10333;SDS011;5212;47.892;16.406;2023-07-13T05:00:08;4.57;;;2.60;;
10333;SDS011;5212;47.892;16.406;2023-07-13T05:02:37;4.43;;;2.70;;
10333;SDS011;5212;47.892;16.406;2023-07-13T05:05:05;4.63;;;2.87;;
10333;SDS011;5212;47.892;16.406;2023-07-13T05:07:31;3.27;;;2.73;;
10333;SDS011;5212;47.892;16.406;2023-07-13T05:09:58;3.97;;;2.40;;
10333;SDS011;5212;47.892;16.406;2023-07-13T05:12:25;5.50;;;2.50;;
10333;SDS011;5212;47.892;16.406;2023-07-13T05:14:51;3.50;;;2.30;;
10333;SDS011;5212;47.892;16.406;2023-07-13T05:17:17;4.67;;;2.60;;
10333;SDS011;5212;47.892;16.406;2023-07-13T05:19:43;4.50;;;2.47;;
10333;SDS011;5212;47.892;16.406;2023-07-13T05:22:10;5.03;;;2.40;;
10333;SDS011;5212;47.892;16.406;2023-07-13T05:24:36;3.50;;;2.60;;
10333;SDS011;5212;47.892;16.406;2023-07-13T05:27:02;3.90;;;2.30;;
10333;SDS011;5212;47.892;16.406;2023-07-13T05:29:29;2.90;;;2.10;;
10333;SDS011;5212;47.892;16.406;2023-07-13T05:31:55;3.57;;;2.33;;
10333;SDS011;5212;47.892;16.406;2023-07-13T05:34:21;2.77;;;2.30;;
10333;SDS011;5212;47.892;16.406;2023-07-13T05:36:47;2.13;;;1.90;;
10333;SDS011;5212;47.892;16.406;2023-07-13T05:39:14;2.87;;;2.10;;
10333;SDS011;5212;47.892;16.406;2023-07-13T05:41:41;2.47;;;2.17;;
10333;SDS011;5212;47.892;16.406;2023-07-13T05:44:07;3.67;;;2.50;;
10333;SDS011;5212;47.892;16.406;2023-07-13T05:46:33;3.10;;;2.40;;
10333;SDS011;5212;47.892;16.406;2023-07-13T05:48:59;4.77;;;3.00;;
10333;SDS011;5212;47.892;16.406;2023-07-13T05:51:25;4.00;;;2.67;;
10333;SDS011;5212;47.892;16.406;2023-07-13T05:53:51;3.87;;;2.67;;
10333;SDS011;5212;47.892;16.406;2023-07-13T05:56:18;3.43;;;2.40;;
10333;SDS011;5212;47.892;16.406;2023-07-13T05:58:44;3.07;;;2.77;;
10333;SDS011;5212;47.892;16.406;2023-07-13T06:01:10;4.70;;;3.00;;
10333;SDS011;5212;47.892;16.406;2023-07-13T06:03:38;2.90;;;2.63;;
10333;SDS011;5212;47.892;16.406;2023-07-13T06:06:04;4.50;;;3.33;;
10333;SDS011;5212;47.892;16.406;2023-07-13T06:08:30;2.90;;;2.60;;
10333;SDS011;5212;47.892;16.406;2023-07-13T06:11:01;3.10;;;2.70;;
10333;SDS011;5212;47.892;16.406;2023-07-13T06:13:28;2.57;;;2.37;;
10333;SDS011;5212;47.892;16.406;2023-07-13T06:15:54;2.70;;;2.50;;
10333;SDS011;5212;47.892;16.406;2023-07-13T06:18:20;4.00;;;2.80;;
10333;SDS011;5212;47.892;16.406;2023-07-13T06:20:46;4.27;;;2.83;;
10333;SDS011;5212;47.892;16.406;2023-07-13T06:23:12;3.77;;;2.73;;
10333;SDS011;5212;47.892;16.406;2023-07-13T06:25:39;3.07;;;2.60;;
10333;SDS011;5212;47.892;16.406;2023-07-13T06:28:05;2.57;;;2.30;;
10333;SDS011;5212;47.892;16.406;2023-07-13T06:30:32;2.50;;;2.30;;
10333;SDS011;5212;47.892;16.406;2023-07-13T06:32:58;2.50;;;2.30;;
10333;SDS011;5212;47.892;16.406;2023-07-13T06:35:24;3.27;;;2.20;;
10333;SDS011;5212;47.892;16.406;2023-07-13T06:37:50;4.77;;;2.40;;
10333;SDS011;5212;47.892;16.406;2023-07-13T06:40:16;2.60;;;2.40;;
10333;SDS011;5212;47.892;16.406;2023-07-13T06:42:42;2.40;;;2.10;;
10333;SDS011;5212;47.892;16.406;2023-07-13T06:45:09;5.23;;;2.60;;
10333;SDS011;5212;47.892;16.406;2023-07-13T06:47:36;2.40;;;2.20;;
10333;SDS011;5212;47.892;16.406;2023-07-13T06:50:02;2.43;;;2.20;;
10333;SDS011;5212;47.892;16.406;2023-07-13T06:52:28;3.40;;;2.53;;
10333;SDS011;5212;47.892;16.406;2023-07-13T06:54:54;2.90;;;2.60;;
10333;SDS011;5212;47.892;16.406;2023-07-13T06:57:21;3.20;;;2.50;;
10333;SDS011;5212;47.892;16.406;2023-07-13T06:59:47;2.30;;;2.00;;
10333;SDS011;5212;47.892;16.406;2023-07-13T07:02:13;2.50;;;2.20;;
10333;SDS011;5212;47.892;16.406;2023-07-13T07:04:39;2.70;;;2.30;;
10333;SDS011;5212;47.892;16.406;2023-07-13T07:07:05;2.67;;;2.13;;
10333;SDS011;5212;47.892;16.406;2023-07-13T07:09:31;3.37;;;2.40;;
10333;SDS011;5212;47.892;16.406;2023-07-13T07:11:57;2.10;;;1.90;;
10333;SDS011;5212;47.892;16.406;2023-07-13T07:14:23;3.10;;;1.90;;
10333;SDS011;5212;47.892;16.406;2023-07-13T07:16:49;3.53;;;2.00;;
10333;SDS011;5212;47.892;16.406;2023-07-13T07:19:15;2.23;;;1.80;;
10333;SDS011;5212;47.892;16.406;2023-07-13T07:21:42;2.90;;;2.03;;
10333;SDS011;5212;47.892;16.406;2023-07-13T07:24:08;1.90;;;1.73;;
10333;SDS011;5212;47.892;16.406;2023-07-13T07:26:34;3.73;;;2.07;;
10333;SDS011;5212;47.892;16.406;2023-07-13T07:29:00;2.43;;;1.73;;
10333;SDS011;5212;47.892;16.406;2023-07-13T07:31:26;2.87;;;1.80;;
10333;SDS011;5212;47.892;16.406;2023-07-13T07:33:52;2.23;;;1.80;;
10333;SDS011;5212;47.892;16.406;2023-07-13T07:36:18;2.37;;;1.73;;
10333;SDS011;5212;47.892;16.406;2023-07-13T07:38:45;3.10;;;1.70;;
10333;SDS011;5212;47.892;16.406;2023-07-13T07:41:11;1.60;;;1.50;;
10333;SDS011;5212;47.892;16.406;2023-07-13T07:43:37;2.27;;;1.60;;
10333;SDS011;5212;47.892;16.406;2023-07-13T07:46:03;1.67;;;1.50;;
10333;SDS011;5212;47.892;16.406;2023-07-13T07:48:29;1.70;;;1.40;;
10333;SDS011;5212;47.892;16.406;2023-07-13T07:50:55;1.50;;;1.40;;
10333;SDS011;5212;47.892;16.406;2023-07-13T07:53:21;3.27;;;1.60;;
10333;SDS011;5212;47.892;16.406;2023-07-13T07:55:48;3.53;;;1.90;;
10333;SDS011;5212;47.892;16.406;2023-07-13T07:58:14;1.60;;;1.50;;
10333;SDS011;5212;47.892;16.406;2023-07-13T08:00:41;1.50;;;1.33;;
10333;SDS011;5212;47.892;16.406;2023-07-13T08:03:07;1.50;;;1.40;;
10333;SDS011;5212;47.892;16.406;2023-07-13T08:05:34;2.20;;;1.50;;
10333;SDS011;5212;47.892;16.406;2023-07-13T08:08:00;1.60;;;1.33;;
10333;SDS011;5212;47.892;16.406;2023-07-13T08:10:26;1.93;;;1.50;;
10333;SDS011;5212;47.892;16.406;2023-07-13T08:12:53;1.83;;;1.50;;
10333;SDS011;5212;47.892;16.406;2023-07-13T08:15:19;1.73;;;1.30;;
10333;SDS011;5212;47.892;16.406;2023-07-13T08:17:46;1.50;;;1.40;;
10333;SDS011;5212;47.892;16.406;2023-07-13T08:20:13;2.23;;;1.13;;
10333;SDS011;5212;47.892;16.406;2023-07-13T08:22:39;1.40;;;1.30;;
10333;SDS011;5212;47.892;16.406;2023-07-13T08:25:05;1.77;;;1.30;;
10333;SDS011;5212;47.892;16.406;2023-07-13T08:27:32;1.50;;;1.20;;
10333;SDS011;5212;47.892;16.406;2023-07-13T08:29:59;1.30;;;1.20;;
10333;SDS011;5212;47.892;16.406;2023-07-13T08:32:25;1.20;;;1.10;;
10333;SDS011;5212;47.892;16.406;2023-07-13T08:34:51;1.30;;;1.20;;
10333;SDS011;5212;47.892;16.406;2023-07-13T08:37:17;2.43;;;1.30;;
10333;SDS011;5212;47.892;16.406;2023-07-13T08:39:43;1.77;;;1.23;;
10333;SDS011;5212;47.892;16.406;2023-07-13T08:42:12;1.37;;;1.17;;
10333;SDS011;5212;47.892;16.406;2023-07-13T08:44:54;1.37;;;1.00;;
10333;SDS011;5212;47.892;16.406;2023-07-13T08:47:23;1.20;;;1.10;;
10333;SDS011;5212;47.892;16.406;2023-07-13T08:49:49;1.17;;;1.07;;
10333;SDS011;5212;47.892;16.406;2023-07-13T08:52:17;1.43;;;1.30;;
10333;SDS011;5212;47.892;16.406;2023-07-13T08:54:52;1.47;;;1.20;;
10333;SDS011;5212;47.892;16.406;2023-07-13T08:57:19;1.40;;;1.20;;
10333;SDS011;5212;47.892;16.406;2023-07-13T08:59:47;1.50;;;1.30;;
10333;SDS011;5212;47.892;16.406;2023-07-13T09:02:16;1.47;;;1.17;;
10333;SDS011;5212;47.892;16.406;2023-07-13T09:04:49;1.30;;;1.20;;
10333;SDS011;5212;47.892;16.406;2023-07-13T09:07:18;1.67;;;1.23;;
10333;SDS011;5212;47.892;16.406;2023-07-13T09:09:54;1.30;;;1.20;;
10333;SDS011;5212;47.892;16.406;2023-07-13T09:12:25;2.83;;;1.20;;
10333;SDS011;5212;47.892;16.406;2023-07-13T09:14:55;1.47;;;1.23;;
10333;SDS011;5212;47.892;16.406;2023-07-13T09:17:26;3.73;;;1.20;;
10333;SDS011;5212;47.892;16.406;2023-07-13T09:19:56;3.30;;;1.30;;
10333;SDS011;5212;47.892;16.406;2023-07-13T09:22:24;3.80;;;1.20;;
10333;SDS011;5212;47.892;16.406;2023-07-13T09:24:55;1.47;;;1.20;;
10333;SDS011;5212;47.892;16.406;2023-07-13T09:27:27;1.80;;;1.43;;
10333;SDS011;5212;47.892;16.406;2023-07-13T09:29:57;1.70;;;1.20;;
10333;SDS011;5212;47.892;16.406;2023-07-13T09:32:30;1.60;;;1.50;;
10333;SDS011;5212;47.892;16.406;2023-07-13T09:34:57;2.00;;;1.60;;
10333;SDS011;5212;47.892;16.406;2023-07-13T09:37:27;1.73;;;1.40;;
10333;SDS011;5212;47.892;16.406;2023-07-13T09:39:55;1.67;;;1.40;;
10333;SDS011;5212;47.892;16.406;2023-07-13T09:42:22;1.50;;;1.33;;
10333;SDS011;5212;47.892;16.406;2023-07-13T09:44:52;2.80;;;1.50;;
10333;SDS011;5212;47.892;16.406;2023-07-13T09:47:19;3.23;;;1.60;;
10333;SDS011;5212;47.892;16.406;2023-07-13T09:49:49;2.10;;;1.60;;
10333;SDS011;5212;47.892;16.406;2023-07-13T09:52:21;1.70;;;1.60;;
10333;SDS011;5212;47.892;16.406;2023-07-13T09:54:48;2.23;;;1.60;;
10333;SDS011;5212;47.892;16.406;2023-07-13T09:57:16;1.63;;;1.40;;
10333;SDS011;5212;47.892;16.406;2023-07-13T09:59:44;2.30;;;1.60;;
10333;SDS011;5212;47.892;16.406;2023-07-13T10:02:24;1.70;;;1.43;;
10333;SDS011;5212;47.892;16.406;2023-07-13T10:04:57;1.70;;;1.60;;
10333;SDS011;5212;47.892;16.406;2023-07-13T10:07:24;1.90;;;1.70;;
10333;SDS011;5212;47.892;16.406;2023-07-13T10:09:51;2.20;;;1.90;;
10333;SDS011;5212;47.892;16.406;2023-07-13T10:12:19;2.00;;;1.80;;
10333;SDS011;5212;47.892;16.406;2023-07-13T10:14:45;2.20;;;2.00;;
10333;SDS011;5212;47.892;16.406;2023-07-13T10:17:12;3.43;;;2.40;;
10333;SDS011;5212;47.892;16.406;2023-07-13T10:19:39;2.50;;;2.30;;
10333;SDS011;5212;47.892;16.406;2023-07-13T10:22:11;3.77;;;2.50;;
10333;SDS011;5212;47.892;16.406;2023-07-13T10:24:40;3.03;;;2.80;;
10333;SDS011;5212;47.892;16.406;2023-07-13T10:27:09;3.20;;;2.90;;
10333;SDS011;5212;47.892;16.406;2023-07-13T10:29:42;3.67;;;2.70;;
10333;SDS011;5212;47.892;16.406;2023-07-13T10:32:11;3.67;;;2.90;;
10333;SDS011;5212;47.892;16.406;2023-07-13T10:34:38;3.17;;;2.80;;
10333;SDS011;5212;47.892;16.406;2023-07-13T10:37:05;3.50;;;3.10;;
10333;SDS011;5212;47.892;16.406;2023-07-13T10:39:31;3.10;;;2.90;;
10333;SDS011;5212;47.892;16.406;2023-07-13T10:42:00;2.90;;;2.70;;
10333;SDS011;5212;47.892;16.406;2023-07-13T10:44:30;3.00;;;2.70;;
10333;SDS011;5212;47.892;16.406;2023-07-13T10:46:58;3.00;;;2.60;;
10333;SDS011;5212;47.892;16.406;2023-07-13T10:49:25;3.20;;;2.53;;
10333;SDS011;5212;47.892;16.406;2023-07-13T10:51:52;3.20;;;2.70;;
10333;SDS011;5212;47.892;16.406;2023-07-13T10:54:19;2.53;;;2.33;;
10333;SDS011;5212;47.892;16.406;2023-07-13T10:56:48;2.40;;;2.20;;
10333;SDS011;5212;47.892;16.406;2023-07-13T10:59:17;2.30;;;2.10;;
10333;SDS011;5212;47.892;16.406;2023-07-13T11:01:49;2.90;;;2.40;;
10333;SDS011;5212;47.892;16.406;2023-07-13T11:04:19;4.33;;;2.23;;
10333;SDS011;5212;47.892;16.406;2023-07-13T11:06:46;3.30;;;2.10;;
10333;SDS011;5212;47.892;16.406;2023-07-13T11:09:18;2.73;;;2.03;;
10333;SDS011;5212;47.892;16.406;2023-07-13T11:11:55;3.17;;;1.90;;
10333;SDS011;5212;47.892;16.406;2023-07-13T11:14:27;2.97;;;1.87;;
10333;SDS011;5212;47.892;16.406;2023-07-13T11:16:54;2.43;;;2.03;;
10333;SDS011;5212;47.892;16.406;2023-07-13T11:22:21;3.10;;;1.93;;
10333;SDS011;5212;47.892;16.406;2023-07-13T11:24:50;2.00;;;1.80;;
10333;SDS011;5212;47.892;16.406;2023-07-13T11:27:22;3.03;;;1.80;;
10333;SDS011;5212;47.892;16.406;2023-07-13T11:30:07;2.00;;;1.80;;
10333;SDS011;5212;47.892;16.406;2023-07-13T11:32:50;2.33;;;1.90;;
10333;SDS011;5212;47.892;16.406;2023-07-13T11:35:19;2.03;;;1.83;;
10333;SDS011;5212;47.892;16.406;2023-07-13T11:37:48;2.60;;;2.20;;
10333;SDS011;5212;47.892;16.406;2023-07-13T11:40:14;2.00;;;1.80;;
10333;SDS011;5212;47.892;16.406;2023-07-13T11:42:40;2.20;;;1.70;;
10333;SDS011;5212;47.892;16.406;2023-07-13T11:45:16;2.27;;;1.90;;
10333;SDS011;5212;47.892;16.406;2023-07-13T11:47:45;3.03;;;2.00;;
10333;SDS011;5212;47.892;16.406;2023-07-13T11:50:16;1.90;;;1.80;;
10333;SDS011;5212;47.892;16.406;2023-07-13T11:52:43;2.53;;;1.67;;
10333;SDS011;5212;47.892;16.406;2023-07-13T11:55:13;2.07;;;1.90;;
10333;SDS011;5212;47.892;16.406;2023-07-13T11:57:41;2.33;;;2.00;;
10333;SDS011;5212;47.892;16.406;2023-07-13T12:00:11;2.17;;;1.63;;
10333;SDS011;5212;47.892;16.406;2023-07-13T12:02:40;2.40;;;1.83;;
10333;SDS011;5212;47.892;16.406;2023-07-13T12:05:10;1.70;;;1.60;;
10333;SDS011;5212;47.892;16.406;2023-07-13T12:07:38;1.70;;;1.60;;
10333;SDS011;5212;47.892;16.406;2023-07-13T12:10:10;1.80;;;1.70;;
10333;SDS011;5212;47.892;16.406;2023-07-13T12:12:46;2.97;;;1.80;;
10333;SDS011;5212;47.892;16.406;2023-07-13T12:15:13;2.00;;;1.80;;
10333;SDS011;5212;47.892;16.406;2023-07-13T12:17:40;2.53;;;2.20;;
10333;SDS011;5212;47.892;16.406;2023-07-13T12:20:12;2.00;;;1.87;;
10333;SDS011;5212;47.892;16.406;2023-07-13T12:22:46;3.30;;;1.90;;
10333;SDS011;5212;47.892;16.406;2023-07-13T12:25:13;2.00;;;1.80;;
10333;SDS011;5212;47.892;16.406;2023-07-13T12:27:39;2.30;;;2.10;;
10333;SDS011;5212;47.892;16.406;2023-07-13T12:30:20;2.70;;;1.80;;
10333;SDS011;5212;47.892;16.406;2023-07-13T12:32:58;2.43;;;1.80;;
10333;SDS011;5212;47.892;16.406;2023-07-13T12:35:25;3.33;;;2.57;;
10333;SDS011;5212;47.892;16.406;2023-07-13T12:37:54;1.90;;;1.80;;
10333;SDS011;5212;47.892;16.406;2023-07-13T12:40:25;3.03;;;2.10;;
10333;SDS011;5212;47.892;16.406;2023-07-13T12:42:52;2.50;;;2.10;;
10333;SDS011;5212;47.892;16.406;2023-07-13T12:45:19;2.67;;;1.80;;
10333;SDS011;5212;47.892;16.406;2023-07-13T12:47:48;2.10;;;1.90;;
10333;SDS011;5212;47.892;16.406;2023-07-13T12:50:15;3.27;;;1.90;;
10333;SDS011;5212;47.892;16.406;2023-07-13T12:52:43;3.00;;;2.20;;
10333;SDS011;5212;47.892;16.406;2023-07-13T12:55:11;2.10;;;1.90;;
10333;SDS011;5212;47.892;16.406;2023-07-13T12:57:41;3.13;;;2.10;;
10333;SDS011;5212;47.892;16.406;2023-07-13T13:00:19;2.77;;;1.80;;
10333;SDS011;5212;47.892;16.406;2023-07-13T13:02:48;3.47;;;2.00;;
10333;SDS011;5212;47.892;16.406;2023-07-13T13:05:14;2.40;;;2.20;;
10333;SDS011;5212;47.892;16.406;2023-07-13T13:07:41;2.23;;;1.93;;
10333;SDS011;5212;47.892;16.406;2023-07-13T13:10:11;3.17;;;2.10;;
10333;SDS011;5212;47.892;16.406;2023-07-13T13:12:37;2.27;;;1.93;;
10333;SDS011;5212;47.892;16.406;2023-07-13T13:15:03;2.63;;;2.03;;
10333;SDS011;5212;47.892;16.406;2023-07-13T13:17:32;2.27;;;1.83;;
10333;SDS011;5212;47.892;16.406;2023-07-13T13:19:59;2.10;;;1.80;;
10333;SDS011;5212;47.892;16.406;2023-07-13T13:22:25;3.60;;;1.70;;
10333;SDS011;5212;47.892;16.406;2023-07-13T13:24:51;2.50;;;1.80;;
10333;SDS011;5212;47.892;16.406;2023-07-13T13:27:18;2.47;;;2.00;;
10333;SDS011;5212;47.892;16.406;2023-07-13T13:29:46;2.10;;;1.90;;
10333;SDS011;5212;47.892;16.406;2023-07-13T13:32:12;3.43;;;1.80;;
10333;SDS011;5212;47.892;16.406;2023-07-13T13:34:39;1.90;;;1.73;;
10333;SDS011;5212;47.892;16.406;2023-07-13T13:37:09;3.37;;;1.53;;
10333;SDS011;5212;47.892;16.406;2023-07-13T13:39:43;3.23;;;1.50;;
10333;SDS011;5212;47.892;16.406;2023-07-13T13:42:09;1.97;;;1.63;;
10333;SDS011;5212;47.892;16.406;2023-07-13T13:44:35;2.37;;;1.60;;
10333;SDS011;5212;47.892;16.406;2023-07-13T13:47:02;2.53;;;1.70;;
10333;SDS011;5212;47.892;16.406;2023-07-13T13:49:29;2.33;;;1.70;;
10333;SDS011;5212;47.892;16.406;2023-07-13T13:51:55;2.33;;;1.70;;
10333;SDS011;5212;47.892;16.406;2023-07-13T13:54:23;2.23;;;1.80;;
10333;SDS011;5212;47.892;16.406;2023-07-13T13:56:50;3.83;;;1.90;;
10333;SDS011;5212;47.892;16.406;2023-07-13T13:59:17;2.67;;;1.87;;
10333;SDS011;5212;47.892;16.406;2023-07-13T14:01:44;1.67;;;1.53;;
10333;SDS011;5212;47.892;16.406;2023-07-13T14:04:13;2.90;;;1.80;;
10333;SDS011;5212;47.892;16.406;2023-07-13T14:06:41;1.70;;;1.60;;
10333;SDS011;5212;47.892;16.406;2023-07-13T14:09:08;3.80;;;1.93;;
10333;SDS011;5212;47.892;16.406;2023-07-13T14:11:36;2.43;;;2.00;;
10333;SDS011;5212;47.892;16.406;2023-07-13T14:14:02;2.13;;;1.80;;
10333;SDS011;5212;47.892;16.406;2023-07-13T14:16:29;2.53;;;2.00;;
10333;SDS011;5212;47.892;16.406;2023-07-13T14:18:57;2.97;;;1.80;;
10333;SDS011;5212;47.892;16.406;2023-07-13T14:21:25;2.50;;;2.17;;
10333;SDS011;5212;47.892;16.406;2023-07-13T14:23:52;2.00;;;1.80;;
10333;SDS011;5212;47.892;16.406;2023-07-13T14:26:18;2.63;;;1.63;;
10333;SDS011;5212;47.892;16.406;2023-07-13T14:28:47;2.30;;;2.10;;
10333;SDS011;5212;47.892;16.406;2023-07-13T14:31:15;2.20;;;1.70;;
10333;SDS011;5212;47.892;16.406;2023-07-13T14:33:42;2.00;;;1.80;;
10333;SDS011;5212;47.892;16.406;2023-07-13T14:36:15;2.40;;;1.97;;
10333;SDS011;5212;47.892;16.406;2023-07-13T14:38:47;3.47;;;2.10;;
10333;SDS011;5212;47.892;16.406;2023-07-13T14:41:13;2.20;;;2.00;;
10333;SDS011;5212;47.892;16.406;2023-07-13T14:43:39;2.07;;;1.90;;
10333;SDS011;5212;47.892;16.406;2023-07-13T14:46:07;2.30;;;2.10;;
10333;SDS011;5212;47.892;16.406;2023-07-13T14:48:38;4.40;;;2.10;;
10333;SDS011;5212;47.892;16.406;2023-07-13T14:51:04;2.40;;;2.10;;
10333;SDS011;5212;47.892;16.406;2023-07-13T14:53:31;3.07;;;2.20;;
10333;SDS011;5212;47.892;16.406;2023-07-13T14:55:57;2.20;;;2.00;;